createdAt,value
2019-04-05T00:00:41.760Z,85.10
2019-04-05T00:03:08.268Z,84.80
2019-04-05T00:05:35.348Z,85.20
2019-04-05T00:08:01.765Z,86.00
2019-04-05T00:10:28.275Z,85.20
2019-04-05T00:12:54.958Z,85.60
2019-04-05T00:15:23.339Z,86.10
2019-04-05T00:17:52.152Z,86.40
2019-04-05T00:20:18.682Z,86.90
2019-04-05T00:22:47.911Z,87.20
2019-04-05T00:25:28.121Z,87.50
2019-04-05T00:27:59.267Z,86.80
2019-04-05T00:30:26.074Z,87.00
2019-04-05T00:32:52.784Z,87.10
2019-04-05T00:35:19.503Z,86.70
2019-04-05T00:37:45.924Z,86.70
2019-04-05T00:40:12.871Z,86.20
2019-04-05T00:42:39.279Z,87.20
2019-04-05T00:45:06.501Z,86.70
2019-04-05T00:47:33.005Z,86.40
2019-04-05T00:49:59.663Z,86.80
2019-04-05T00:52:26.194Z,87.40
2019-04-05T00:54:52.945Z,87.70
2019-04-05T00:57:19.582Z,87.90
2019-04-05T00:59:47.055Z,87.90
2019-04-05T01:02:13.485Z,88.00
2019-04-05T01:04:40.037Z,88.20
2019-04-05T01:07:06.749Z,88.10
2019-04-05T01:09:33.289Z,88.70
2019-04-05T01:12:01.398Z,88.70
2019-04-05T01:14:28.257Z,88.50
2019-04-05T01:16:55.381Z,88.70
2019-04-05T01:19:26.622Z,89.00
2019-04-05T01:21:54.746Z,89.30
2019-04-05T01:24:23.288Z,89.30
2019-04-05T01:26:50.089Z,89.50
2019-04-05T01:29:17.542Z,87.90
2019-04-05T01:31:44.116Z,87.50
2019-04-05T01:34:12.019Z,87.90
2019-04-05T01:36:38.468Z,88.20
2019-04-05T01:39:05.153Z,87.70
2019-04-05T01:41:31.897Z,87.80
2019-04-05T01:44:01.046Z,88.00
2019-04-05T01:46:28.065Z,88.30
2019-04-05T01:48:54.589Z,88.40
2019-04-05T01:51:24.375Z,89.00
2019-04-05T01:53:50.869Z,90.00
2019-04-05T01:56:17.881Z,89.30
2019-04-05T01:58:44.246Z,89.40
2019-04-05T02:01:11.012Z,89.00
2019-04-05T02:03:37.625Z,88.90
2019-04-05T02:06:04.269Z,88.90
2019-04-05T02:08:30.903Z,89.80
2019-04-05T02:10:58.125Z,89.90
2019-04-05T02:13:25.084Z,90.00
2019-04-05T02:15:51.789Z,90.00
2019-04-05T02:18:21.248Z,89.70
2019-04-05T02:20:49.078Z,89.70
2019-04-05T02:23:16.162Z,90.10
2019-04-05T02:25:42.569Z,89.70
2019-04-05T02:28:12.112Z,88.90
2019-04-05T02:30:38.685Z,88.90
2019-04-05T02:33:05.430Z,88.90
2019-04-05T02:35:51.879Z,88.70
2019-04-05T02:38:20.911Z,87.90
2019-04-05T02:40:47.932Z,87.90
2019-04-05T02:43:17.296Z,87.30
2019-04-05T02:45:48.240Z,88.00
2019-04-05T02:48:17.715Z,88.90
2019-04-05T02:50:47.931Z,88.20
2019-04-05T02:53:17.188Z,88.20
2019-04-05T02:55:47.600Z,87.60
2019-04-05T02:58:17.172Z,87.10
2019-04-05T03:00:45.104Z,87.30
2019-04-05T03:03:15.250Z,87.30
2019-04-05T03:05:43.057Z,86.30
2019-04-05T03:08:12.109Z,86.60
2019-04-05T03:11:01.250Z,87.50
2019-04-05T03:13:32.130Z,87.10
2019-04-05T03:16:02.366Z,87.40
2019-04-05T03:18:29.923Z,87.90
2019-04-05T03:21:00.051Z,87.40
2019-04-05T03:23:32.010Z,87.90
2019-04-05T03:28:59.801Z,87.70
2019-04-05T03:31:26.739Z,87.80
2019-04-05T03:33:53.887Z,88.30
2019-04-05T03:36:21.699Z,89.20
2019-04-05T03:38:48.316Z,88.80
2019-04-05T03:41:15.950Z,88.50
2019-04-05T03:43:43.989Z,88.10
2019-04-05T03:46:10.645Z,88.30
2019-04-05T03:48:37.632Z,88.40
2019-04-05T03:51:04.859Z,89.60
2019-04-05T03:53:31.678Z,88.50
2019-04-05T03:55:58.070Z,88.50
2019-04-05T03:58:24.699Z,89.30
2019-04-05T04:00:51.901Z,90.20
2019-04-05T04:03:18.440Z,88.50
2019-04-05T04:05:45.047Z,88.40
2019-04-05T04:08:11.771Z,88.80
2019-04-05T04:10:38.700Z,88.90
2019-04-05T04:13:05.282Z,88.50
2019-04-05T04:15:31.989Z,88.60
2019-04-05T04:17:58.657Z,88.20
2019-04-05T04:20:34.798Z,88.20
2019-04-05T04:23:03.897Z,89.30
2019-04-05T04:25:30.630Z,88.10
2019-04-05T04:27:57.263Z,88.10
2019-04-05T04:30:24.712Z,87.40
2019-04-05T04:32:51.620Z,88.20
2019-04-05T04:35:18.129Z,89.10
2019-04-05T04:37:44.962Z,88.50
2019-04-05T04:40:11.457Z,88.80
2019-04-05T04:42:40.314Z,88.50
2019-04-05T04:45:12.638Z,88.50
2019-04-05T04:47:36.444Z,89.20
2019-04-05T04:50:03.493Z,88.80
2019-04-05T04:52:31.518Z,88.80
2019-04-05T04:54:58.618Z,88.40
2019-04-05T04:57:25.352Z,88.60
2019-04-05T04:59:52.148Z,88.30
2019-04-05T05:02:18.679Z,88.50
2019-04-05T05:04:45.520Z,88.50
2019-04-05T05:07:12.620Z,88.70
2019-04-05T05:09:39.261Z,89.20
2019-04-05T05:12:08.833Z,89.00
2019-04-05T05:14:36.424Z,89.20
2019-04-05T05:17:05.794Z,89.60
2019-04-05T05:19:33.022Z,89.50
2019-04-05T05:22:04.177Z,89.50
2019-04-05T05:24:31.057Z,88.90
2019-04-05T05:26:58.430Z,88.90
2019-04-05T05:29:25.155Z,89.00
2019-04-05T05:31:58.913Z,89.40
2019-04-05T05:34:27.407Z,89.60
2019-04-05T05:36:55.927Z,90.00
2019-04-05T05:39:22.571Z,89.90
2019-04-05T05:41:49.170Z,89.20
2019-04-05T05:44:15.823Z,89.40
2019-04-05T05:46:42.209Z,89.40
2019-04-05T05:49:08.890Z,89.60
2019-04-05T05:51:36.318Z,89.50
2019-04-05T05:54:03.033Z,89.70
2019-04-05T05:56:29.576Z,89.90
2019-04-05T05:58:59.439Z,89.80
2019-04-05T06:01:24.435Z,89.50
2019-04-05T06:03:50.901Z,90.00
2019-04-05T06:06:17.321Z,89.60
2019-04-05T06:08:43.882Z,89.30
2019-04-05T06:11:10.308Z,91.70
2019-04-05T06:13:36.800Z,91.00
2019-04-05T06:16:03.432Z,90.70
2019-04-05T06:18:29.710Z,90.40
2019-04-05T06:20:56.166Z,90.70
2019-04-05T06:23:32.968Z,91.10
2019-04-05T06:25:50.924Z,90.30
2019-04-05T06:28:17.435Z,90.00
2019-04-05T06:30:44.090Z,90.10
2019-04-05T06:33:10.662Z,89.00
2019-04-05T06:35:38.504Z,87.90
2019-04-05T06:38:05.119Z,88.60
2019-04-05T06:40:40.781Z,87.50
2019-04-05T06:43:00.314Z,89.10
2019-04-05T06:45:26.843Z,89.40
2019-04-05T06:47:53.357Z,89.60
2019-04-05T06:50:19.963Z,90.20
2019-04-05T06:52:46.490Z,90.10
2019-04-05T06:55:13.175Z,90.00
2019-04-05T06:57:39.737Z,89.50
2019-04-05T07:00:06.715Z,89.30
2019-04-05T07:02:34.474Z,88.70
2019-04-05T07:05:01.141Z,89.00
2019-04-05T07:07:27.555Z,88.10
2019-04-05T07:09:54.096Z,88.00
2019-04-05T07:12:20.941Z,89.20
2019-04-05T07:14:47.671Z,87.90
2019-04-05T07:17:14.342Z,87.10
2019-04-05T07:19:40.953Z,87.80
2019-04-05T07:22:07.550Z,87.20
2019-04-05T07:24:33.988Z,87.00
2019-04-05T07:27:00.692Z,86.10
2019-04-05T07:29:28.372Z,85.20
2019-04-05T07:31:55.089Z,85.40
2019-04-05T07:34:21.587Z,85.60
2019-04-05T07:36:48.061Z,86.40
2019-04-05T07:39:15.041Z,85.90
2019-04-05T07:41:41.564Z,85.40
2019-04-05T07:44:08.105Z,85.50
2019-04-05T07:46:34.761Z,85.90
2019-04-05T07:49:01.269Z,86.20
2019-04-05T07:51:29.159Z,87.20
2019-04-05T07:53:55.665Z,86.90
2019-04-05T07:56:22.270Z,87.40
2019-04-05T07:58:48.950Z,87.10
2019-04-05T08:01:15.663Z,87.90
2019-04-05T08:03:42.322Z,87.80
2019-04-05T08:06:09.960Z,87.60
2019-04-05T08:08:55.241Z,87.10
2019-04-05T08:11:21.780Z,88.80
2019-04-05T08:13:49.226Z,87.90
2019-04-05T08:16:15.912Z,87.80
2019-04-05T08:18:42.622Z,87.30
2019-04-05T08:21:09.262Z,87.00
2019-04-05T08:23:35.673Z,86.40
2019-04-05T08:26:02.284Z,87.40
2019-04-05T08:28:29.811Z,87.10
2019-04-05T08:30:56.850Z,86.60
2019-04-05T08:33:23.425Z,86.50
2019-04-05T08:35:50.109Z,86.00
2019-04-05T08:38:16.571Z,86.10
2019-04-05T08:40:42.936Z,85.00
2019-04-05T08:43:09.604Z,85.40
2019-04-05T08:45:36.280Z,85.10
2019-04-05T08:48:02.979Z,84.80
2019-04-05T08:50:29.576Z,85.90
2019-04-05T08:52:56.248Z,86.60
2019-04-05T08:55:22.779Z,85.60
2019-04-05T08:57:49.458Z,86.00
2019-04-05T09:00:16.883Z,86.10
2019-04-05T09:02:43.688Z,86.00
2019-04-05T09:05:10.323Z,86.50
2019-04-05T09:07:37.116Z,87.70
2019-04-05T09:10:05.265Z,87.80
2019-04-05T09:12:31.844Z,85.90
2019-04-05T09:14:58.325Z,86.20
2019-04-05T09:17:24.789Z,86.50
2019-04-05T09:19:54.123Z,85.70
2019-04-05T09:22:21.006Z,85.30
2019-04-05T09:24:47.331Z,83.80
2019-04-05T09:27:13.750Z,83.60
2019-04-05T09:29:40.465Z,82.70
2019-04-05T09:32:07.138Z,81.10
2019-04-05T09:34:33.735Z,81.00
2019-04-05T09:37:00.261Z,82.40
2019-04-05T09:39:26.792Z,83.20
2019-04-05T09:41:53.377Z,83.00
2019-04-05T09:44:19.977Z,83.10
2019-04-05T09:46:50.890Z,83.10
2019-04-05T09:49:14.967Z,82.10
2019-04-05T09:51:41.476Z,84.30
2019-04-05T09:54:09.959Z,84.40
2019-04-05T09:56:36.475Z,86.30
2019-04-05T09:59:14.131Z,88.70
2019-04-05T10:01:40.808Z,87.80
2019-04-05T10:04:07.556Z,87.90
2019-04-05T10:06:34.074Z,88.80
2019-04-05T10:09:00.675Z,88.20
2019-04-05T10:11:27.768Z,88.20
2019-04-05T10:13:54.283Z,88.30
2019-04-05T10:16:20.704Z,88.70
2019-04-05T10:18:47.330Z,89.10
2019-04-05T10:21:14.140Z,88.60
2019-04-05T10:23:40.699Z,89.10
2019-04-05T10:26:07.310Z,88.90
2019-04-05T10:28:34.040Z,89.00
2019-04-05T10:31:00.989Z,88.70
2019-04-05T10:33:28.721Z,88.00
2019-04-05T10:35:55.196Z,87.10
2019-04-05T10:38:22.850Z,85.30
2019-04-05T10:40:49.266Z,85.70
2019-04-05T10:43:16.129Z,86.70
2019-04-05T10:45:42.822Z,86.60
2019-04-05T10:48:09.573Z,85.40
2019-04-05T10:50:36.127Z,84.90
2019-04-05T10:53:03.077Z,83.10
2019-04-05T10:55:29.838Z,82.80
2019-04-05T10:57:56.593Z,83.50
2019-04-05T11:00:24.925Z,84.60
2019-04-05T11:02:51.450Z,84.20
2019-04-05T11:05:18.109Z,84.10
2019-04-05T11:07:44.662Z,84.50
2019-04-05T11:10:12.053Z,85.40
2019-04-05T11:12:38.610Z,84.90
2019-04-05T11:15:05.890Z,83.70
2019-04-05T11:17:32.388Z,85.20
2019-04-05T11:19:58.923Z,84.70
2019-04-05T11:22:25.550Z,83.40
2019-04-05T11:24:52.101Z,82.10
2019-04-05T11:27:18.754Z,82.00
2019-04-05T11:29:45.313Z,81.40
2019-04-05T11:32:11.964Z,82.30
2019-04-05T11:34:38.872Z,82.40
2019-04-05T11:37:06.829Z,81.20
2019-04-05T11:39:33.573Z,81.90
2019-04-05T11:42:02.378Z,81.10
2019-04-05T11:44:31.277Z,79.20
2019-04-05T11:46:57.789Z,78.60
2019-04-05T11:49:24.478Z,78.20
2019-04-05T11:51:51.615Z,77.50
2019-04-05T11:54:18.534Z,77.40
2019-04-05T11:56:45.197Z,78.20
2019-04-05T11:59:15.662Z,76.80
2019-04-05T12:01:45.055Z,76.20
2019-04-05T12:04:11.572Z,76.30
2019-04-05T12:06:38.112Z,75.50
2019-04-05T12:09:07.059Z,73.10
2019-04-05T12:11:33.785Z,74.00
2019-04-05T12:14:00.181Z,73.00
2019-04-05T12:16:26.925Z,73.70
2019-04-05T12:18:53.971Z,74.20
2019-04-05T12:21:21.045Z,73.50
2019-04-05T12:23:48.018Z,72.30
2019-04-05T12:26:14.445Z,72.40
2019-04-05T12:28:41.051Z,71.10
2019-04-05T12:31:07.803Z,71.30
2019-04-05T12:33:34.236Z,71.30
2019-04-05T12:36:00.876Z,71.70
2019-04-05T12:38:31.504Z,71.00
2019-04-05T12:41:00.786Z,70.20
2019-04-05T12:43:27.459Z,69.00
2019-04-05T12:45:54.098Z,68.60
2019-04-05T12:48:21.580Z,67.70
2019-04-05T12:51:00.328Z,67.70
2019-04-05T12:53:17.003Z,68.20
2019-04-05T12:55:43.623Z,67.50
2019-04-05T12:58:10.323Z,67.90
2019-04-05T13:00:38.994Z,68.20
2019-04-05T13:03:06.592Z,68.20
2019-04-05T13:05:38.135Z,68.40
2019-04-05T13:08:09.645Z,67.50
2019-04-05T13:10:36.652Z,68.40
2019-04-05T13:13:03.380Z,68.60
2019-04-05T13:15:30.094Z,68.90
2019-04-05T13:18:00.440Z,70.00
2019-04-05T13:20:25.945Z,70.10
2019-04-05T13:22:52.893Z,70.00
2019-04-05T13:25:19.459Z,69.80
2019-04-05T13:27:46.228Z,69.10
2019-04-05T13:30:13.391Z,69.20
2019-04-05T13:32:40.000Z,69.20
2019-04-05T13:35:07.384Z,69.80
2019-04-05T13:37:34.048Z,70.90
2019-04-05T13:40:00.735Z,71.70
2019-04-05T13:42:27.332Z,72.20
2019-04-05T13:44:54.114Z,73.10
2019-04-05T13:47:20.720Z,70.90
2019-04-05T13:49:47.278Z,54.80
2019-04-05T13:52:14.782Z,48.40
2019-04-05T13:54:41.546Z,45.90
2019-04-05T13:57:10.509Z,43.30
2019-04-05T13:59:36.215Z,46.60
2019-04-05T14:02:06.379Z,50.80
2019-04-05T14:04:33.263Z,54.30
2019-04-05T14:06:59.965Z,57.90
2019-04-05T14:09:26.276Z,60.90
2019-04-05T14:11:52.819Z,63.20
2019-04-05T14:14:19.318Z,64.00
2019-04-05T14:16:45.981Z,63.30
2019-04-05T14:19:12.551Z,62.80
2019-04-05T14:21:41.889Z,60.40
2019-04-05T14:24:07.503Z,60.40
2019-04-05T14:26:34.069Z,61.80
2019-04-05T14:29:03.487Z,63.80
2019-04-05T14:31:29.580Z,64.10
2019-04-05T14:33:57.260Z,63.60
2019-04-05T14:36:23.962Z,66.20
2019-04-05T14:38:50.542Z,66.10
2019-04-05T14:41:17.339Z,66.50
2019-04-05T14:43:45.006Z,67.20
2019-04-05T14:46:12.422Z,66.50
2019-04-05T14:49:00.653Z,67.30
2019-04-05T14:51:28.672Z,67.50
2019-04-05T14:53:55.529Z,65.70
2019-04-05T14:56:22.038Z,66.50
2019-04-05T14:58:48.568Z,66.10
2019-04-05T15:01:17.493Z,65.30
2019-04-05T15:03:43.572Z,64.70
2019-04-05T15:06:10.098Z,65.30
2019-04-05T15:08:36.846Z,65.50
2019-04-05T15:11:04.137Z,64.30
2019-04-05T15:13:30.795Z,64.70
2019-04-05T15:15:57.378Z,65.10
2019-04-05T15:18:24.546Z,63.70
2019-04-05T15:20:51.820Z,63.80
2019-04-05T15:23:18.392Z,64.60
2019-04-05T15:25:49.447Z,65.80
2019-04-05T15:28:13.858Z,65.50
2019-04-05T15:30:40.381Z,65.30
2019-04-05T15:33:06.868Z,65.10
2019-04-05T15:35:33.568Z,64.90
2019-04-05T15:38:02.039Z,65.50
2019-04-05T15:40:28.729Z,67.20
2019-04-05T15:42:57.482Z,66.00
2019-04-05T15:45:24.030Z,65.60
2019-04-05T15:47:52.383Z,67.10
2019-04-05T15:50:19.675Z,68.00
2019-04-05T15:52:47.266Z,67.70
2019-04-05T15:55:13.822Z,68.40
2019-04-05T15:57:40.359Z,68.00
2019-04-05T16:00:11.282Z,68.70
2019-04-05T16:02:37.905Z,69.30
2019-04-05T16:05:05.738Z,69.50
2019-04-05T16:07:33.351Z,70.20
2019-04-05T16:10:00.050Z,70.40
2019-04-05T16:12:26.759Z,70.30
2019-04-05T16:14:53.219Z,70.30
2019-04-05T16:17:19.599Z,69.70
2019-04-05T16:19:46.382Z,70.30
2019-04-05T16:22:13.044Z,70.10
2019-04-05T16:24:39.621Z,69.50
2019-04-05T16:27:06.346Z,70.40
2019-04-05T16:29:33.026Z,70.80
2019-04-05T16:31:59.588Z,71.30
2019-04-05T16:34:26.269Z,71.80
2019-04-05T16:36:52.837Z,73.60
2019-04-05T16:39:19.682Z,74.10
2019-04-05T16:41:46.393Z,74.20
2019-04-05T16:44:13.056Z,74.80
2019-04-05T16:46:39.647Z,74.60
2019-04-05T16:49:06.123Z,74.60
2019-04-05T16:51:32.568Z,75.60
2019-04-05T16:54:01.543Z,76.50
2019-04-05T16:56:28.454Z,77.80
2019-04-05T16:58:56.868Z,78.10
2019-04-05T17:01:27.226Z,78.70
2019-04-05T17:03:52.004Z,79.00
2019-04-05T17:06:18.792Z,79.30
2019-04-05T17:08:45.547Z,80.10
2019-04-05T17:11:12.337Z,79.50
2019-04-05T17:13:38.846Z,79.60
2019-04-05T17:16:05.437Z,80.30
2019-04-05T17:18:32.366Z,79.40
2019-04-05T17:20:59.201Z,79.40
2019-04-05T17:23:26.135Z,79.90
2019-04-05T17:28:54.093Z,81.60
2019-04-05T17:31:20.688Z,81.60
2019-04-05T17:33:50.292Z,82.20
2019-04-05T17:36:28.005Z,82.60
2019-04-05T17:38:55.975Z,82.90
2019-04-05T17:41:23.805Z,83.20
2019-04-05T17:43:50.576Z,83.10
2019-04-05T17:46:17.166Z,83.70
2019-04-05T17:48:43.851Z,83.70
2019-04-05T17:51:10.583Z,82.90
2019-04-05T17:53:37.528Z,82.60
2019-04-05T17:56:04.330Z,82.80
2019-04-05T17:58:32.074Z,83.20
2019-04-05T18:00:58.608Z,83.00
2019-04-05T18:03:25.298Z,82.90
2019-04-05T18:05:51.813Z,83.00
2019-04-05T18:08:18.223Z,82.80
2019-04-05T18:10:45.095Z,82.70
2019-04-05T18:13:11.639Z,82.50
2019-04-05T18:15:51.819Z,82.70
2019-04-05T18:18:08.612Z,83.60
2019-04-05T18:20:35.204Z,82.80
2019-04-05T18:23:01.860Z,83.10
2019-04-05T18:25:28.651Z,82.90
2019-04-05T18:27:55.268Z,82.40
2019-04-05T18:30:21.889Z,82.30
2019-04-05T18:32:48.509Z,82.00
2019-04-05T18:35:15.062Z,80.50
2019-04-05T18:37:41.603Z,79.00
2019-04-05T18:40:08.817Z,79.20
2019-04-05T18:42:35.401Z,81.30
2019-04-05T18:45:02.637Z,81.30
2019-04-05T18:47:30.320Z,81.50
2019-04-05T18:50:02.879Z,81.20
2019-04-05T18:52:25.186Z,80.40
2019-04-05T18:54:51.634Z,80.30
2019-04-05T18:57:18.300Z,80.90
2019-04-05T18:59:44.850Z,80.90
2019-04-05T19:02:11.448Z,80.50
2019-04-05T19:04:38.333Z,80.80
2019-04-05T19:07:05.935Z,80.90
2019-04-05T19:09:32.605Z,81.30
2019-04-05T19:11:59.186Z,81.40
2019-04-05T19:14:25.817Z,81.70
2019-04-05T19:16:53.195Z,81.30
2019-04-05T19:19:19.948Z,81.30
2019-04-05T19:21:46.786Z,81.50
2019-04-05T19:24:13.439Z,81.70
2019-04-05T19:26:40.053Z,81.80
2019-04-05T19:29:06.702Z,81.80
2019-04-05T19:48:52.398Z,80.60
2019-04-05T19:51:19.144Z,80.40
2019-04-05T19:53:45.794Z,80.30
2019-04-05T19:56:12.211Z,80.60
2019-04-05T19:58:38.895Z,80.80
2019-04-05T20:01:05.905Z,80.50
2019-04-05T20:03:32.475Z,80.70
2019-04-05T20:05:59.278Z,81.10
2019-04-05T20:08:26.990Z,81.10
2019-04-05T20:10:53.697Z,81.20
2019-04-05T20:13:20.435Z,81.10
2019-04-05T20:15:47.211Z,81.70
2019-04-05T20:18:13.740Z,82.40
2019-04-05T20:20:41.295Z,81.30
2019-04-05T20:23:08.085Z,81.60
2019-04-05T20:25:34.857Z,81.90
2019-04-05T20:28:01.405Z,81.70
2019-04-05T20:30:28.079Z,82.10
2019-04-05T20:32:54.746Z,83.20
2019-04-05T20:35:21.400Z,82.60
2019-04-05T20:37:48.856Z,82.60
2019-04-05T20:40:15.396Z,82.50
2019-04-05T20:42:42.458Z,82.40
2019-04-05T20:45:09.285Z,82.60
2019-04-05T20:47:35.960Z,82.50
2019-04-05T20:50:06.424Z,82.30
2019-04-05T20:52:33.024Z,81.90
2019-04-05T20:54:59.501Z,81.60
2019-04-05T20:57:25.942Z,81.90
2019-04-05T20:59:52.362Z,82.30
2019-04-05T21:02:19.035Z,82.40
2019-04-05T21:04:45.497Z,82.80
2019-04-05T21:07:11.954Z,82.50
2019-04-05T21:09:38.774Z,82.30
2019-04-05T21:12:05.375Z,82.00
2019-04-05T21:14:31.940Z,82.20
2019-04-05T21:16:58.307Z,81.90
2019-04-05T21:19:25.159Z,81.80
2019-04-05T21:21:51.735Z,82.10
2019-04-05T21:24:18.495Z,81.90
2019-04-05T21:26:45.006Z,81.80
2019-04-05T21:29:11.395Z,82.10
2019-04-05T21:31:37.988Z,81.90
2019-04-05T21:34:04.538Z,82.00
2019-04-05T21:36:31.072Z,82.30
2019-04-05T21:38:57.626Z,83.20
2019-04-05T21:41:24.068Z,82.70
2019-04-05T21:43:50.548Z,82.40
2019-04-05T21:46:16.983Z,82.80
2019-04-05T21:48:43.618Z,83.00
2019-04-05T21:51:10.089Z,83.10
2019-04-05T21:53:37.720Z,83.40
2019-04-05T21:56:04.207Z,83.10
2019-04-05T21:58:30.684Z,83.10
2019-04-05T22:01:01.201Z,83.10
2019-04-05T22:03:29.674Z,84.10
2019-04-05T22:05:56.222Z,83.10
2019-04-05T22:08:24.551Z,83.10
2019-04-05T22:10:51.174Z,82.80
2019-04-05T22:13:17.487Z,82.60
2019-04-05T22:15:44.028Z,82.70
2019-04-05T22:18:12.474Z,82.80
2019-04-05T22:20:38.983Z,82.70
2019-04-05T22:23:05.499Z,82.80
2019-04-05T22:25:33.412Z,83.10
2019-04-05T22:27:59.984Z,82.70
2019-04-05T22:30:26.917Z,83.10
2019-04-05T22:32:53.439Z,82.90
2019-04-05T22:35:19.883Z,82.70
2019-04-05T22:37:46.264Z,83.20
2019-04-05T22:40:12.828Z,83.20
2019-04-05T22:42:39.538Z,82.70
2019-04-05T22:45:07.140Z,82.70
2019-04-05T22:47:34.427Z,82.50
2019-04-05T22:50:00.871Z,82.70
2019-04-05T22:52:27.382Z,82.70
2019-04-05T22:54:54.040Z,82.50
2019-04-05T22:57:20.576Z,82.60
2019-04-05T22:59:47.049Z,82.70
2019-04-05T23:02:13.479Z,82.90
2019-04-05T23:04:39.988Z,82.90
2019-04-05T23:07:06.439Z,83.40
2019-04-05T23:09:33.097Z,83.50
2019-04-05T23:11:59.488Z,83.80
2019-04-05T23:14:25.800Z,83.80
2019-04-05T23:16:52.297Z,83.50
2019-04-05T23:19:18.689Z,83.10
2019-04-05T23:21:45.602Z,83.00
2019-04-05T23:24:13.036Z,83.10
2019-04-05T23:26:39.534Z,83.20
2019-04-05T23:29:06.185Z,83.10
2019-04-05T23:31:32.491Z,83.30
2019-04-05T23:34:00.999Z,83.60
2019-04-05T23:36:27.382Z,83.30
2019-04-05T23:38:53.899Z,83.30
2019-04-05T23:41:22.341Z,83.10
2019-04-05T23:43:49.204Z,83.20
2019-04-05T23:46:17.352Z,82.80
2019-04-05T23:48:43.675Z,82.40
2019-04-05T23:51:12.884Z,82.40
2019-04-05T23:53:39.445Z,82.60
2019-04-05T23:56:06.047Z,82.40
2019-04-05T23:58:34.228Z,82.10
